createdAt,value
2017-08-17T19:20:58.150Z,28.71
2017-08-17T19:22:59.683Z,28.59
2017-08-17T19:25:24.497Z,28.49
2017-08-17T19:27:51.498Z,28.53
2017-08-17T19:30:16.241Z,28.65
2017-08-17T19:32:40.929Z,28.57
2017-08-17T19:35:05.637Z,28.49
2017-08-17T19:37:30.452Z,28.53
2017-08-17T19:39:46.737Z,28.41
2017-08-17T19:42:11.490Z,28.33
2017-08-17T19:44:36.034Z,28.25
2017-08-17T19:47:00.724Z,28.22
2017-08-17T19:49:16.908Z,28.06
2017-08-17T19:51:19.072Z,28.13
2017-08-17T19:53:43.790Z,28.22
2017-08-17T19:56:08.474Z,27.98
2017-08-17T19:58:33.165Z,28.04
2017-08-17T20:00:49.368Z,27.95
2017-08-17T20:03:14.065Z,28.12
2017-08-17T20:05:38.864Z,27.97
2017-08-17T20:08:03.583Z,27.9
2017-08-17T20:10:28.301Z,28
2017-08-17T20:12:53.088Z,28.01
2017-08-17T20:15:17.792Z,27.95
2017-08-17T20:17:42.523Z,27.88
2017-08-17T20:20:07.184Z,27.95
2017-08-17T20:22:31.868Z,27.88
2017-08-17T20:24:08.123Z,27.79
2017-08-17T20:26:33.108Z,27.86
2017-08-17T20:28:49.493Z,27.75
2017-08-17T20:31:14.241Z,27.82
2017-08-17T20:33:30.429Z,27.68
2017-08-17T20:36:02.455Z,27.47
2017-08-17T20:37:48.073Z,27.07
2017-08-17T20:40:13.046Z,27.35
2017-08-17T20:42:37.577Z,27.13
2017-08-17T20:45:46.887Z,27.33
2017-08-17T20:48:14.427Z,27.33
2017-08-17T20:50:38.906Z,27.37
2017-08-17T20:53:03.747Z,27.38
2017-08-17T20:55:28.655Z,27.34
2017-08-17T20:57:53.130Z,27.2
2017-08-17T21:00:17.876Z,27.11
2017-08-17T21:02:43.169Z,27.08
2017-08-17T21:05:08.052Z,27.19
2017-08-17T21:07:32.735Z,27.25
2017-08-17T21:09:57.895Z,26.83
2017-08-17T21:12:22.805Z,26.73
2017-08-17T21:14:47.523Z,26.92
2017-08-17T21:17:12.189Z,26.83
2017-08-17T21:19:36.789Z,27.03
2017-08-17T21:22:02.951Z,27.1
2017-08-17T21:24:27.106Z,27.04
2017-08-17T21:26:51.704Z,27.15
2017-08-17T21:29:16.537Z,27.29
2017-08-17T21:31:41.266Z,27.23
2017-08-17T21:34:05.874Z,27.1
2017-08-17T21:36:17.031Z,27.22
2017-08-17T21:38:41.654Z,27.1
2017-08-17T21:41:07.235Z,27.15
2017-08-17T21:43:32.195Z,27.01
2017-08-17T21:45:57.689Z,26.97
2017-08-17T21:48:24.123Z,26.98
2017-08-17T21:50:49.906Z,26.67
2017-08-17T21:53:14.505Z,26.51
2017-08-17T21:55:39.824Z,26.24
2017-08-17T21:58:05.044Z,26.45
2017-08-17T22:00:30.049Z,26.46
2017-08-17T22:02:54.856Z,26.22
2017-08-17T22:05:19.193Z,26.23
2017-08-17T22:07:43.814Z,25.93
2017-08-17T22:10:08.408Z,25.81
2017-08-17T22:12:32.989Z,25.68
2017-08-17T22:14:57.613Z,25.7
2017-08-17T22:17:22.175Z,25.56
2017-08-17T22:18:58.040Z,25.73
2017-08-17T22:20:34.339Z,25.89
2017-08-17T22:22:58.985Z,25.74
2017-08-17T22:25:23.487Z,25.52
2017-08-17T22:27:48.116Z,25.71
2017-08-17T22:30:12.559Z,25.78
2017-08-17T22:32:37.110Z,25.33
2017-08-17T22:35:01.613Z,25.46
2017-08-17T22:37:26.046Z,25.52
2017-08-17T22:39:50.539Z,25.58
2017-08-17T22:42:15.037Z,25.71
2017-08-17T22:44:39.550Z,25.49
2017-08-17T22:47:04.041Z,25.55
2017-08-17T22:49:28.546Z,25.61
2017-08-17T22:51:53.035Z,25.51
2017-08-17T22:54:17.530Z,25.66
2017-08-17T22:56:41.981Z,25.71
2017-08-17T22:59:06.472Z,25.77
2017-08-17T23:01:30.972Z,25.83
2017-08-17T23:03:55.445Z,25.86
2017-08-17T23:06:19.949Z,25.76
2017-08-17T23:08:44.433Z,25.85
2017-08-17T23:11:09.063Z,25.73
2017-08-17T23:13:33.524Z,25.74
2017-08-17T23:15:45.076Z,25.76
2017-08-17T23:17:20.993Z,25.83
2017-08-17T23:19:45.556Z,25.58
2017-08-17T23:22:10.034Z,25.55
2017-08-17T23:24:26.041Z,25.52
2017-08-17T23:26:50.530Z,25.56
2017-08-17T23:29:15.018Z,25.55
2017-08-17T23:31:25.091Z,25.51
2017-08-17T23:33:49.643Z,25.54
2017-08-17T23:36:15.023Z,25.41
2017-08-17T23:38:39.499Z,25.31
2017-08-17T23:41:03.991Z,25.21
2017-08-17T23:43:28.467Z,25.4
2017-08-17T23:45:52.946Z,25.26
2017-08-17T23:48:17.402Z,25.3
2017-08-17T23:50:41.927Z,25
2017-08-17T23:53:06.428Z,25.18
2017-08-17T23:55:31.010Z,25.15
2017-08-17T23:57:46.976Z,25.14
